Aviation Digital Data Service (ADDS)

Output produced by METARs form (1054 UTC 19 January 2019)
found at http://www.aviationweather.gov/metar/data/
 
KBKW 191051Z AUTO 14007G14KT 10SM SCT011 03/01 A2994 RMK AO2 SLP159 T00280011
KBKW 191009Z 1910/2006 14012G21KT P6SM BKN200 
     TEMPO 1910/1913 BKN015 OVC025 
     FM191300 14012G21KT P6SM OVC025 
     FM191800 14015G25KT 2SM RA BR OVC025 
     FM192200 14012G24KT 1 1/2SM RA BR OVC010 
     FM200400 17009G17KT 2SM RA BR OVC007
       
KBLF 191052Z AUTO 10SM OVC010 03/01 A2994 RMK AO2 PK WND 13028/1027 SLP147 T00330011
KBLF 191021Z 1910/2006 19011G22KT P6SM OVC012 
     FM191300 15008G18KT 3SM BR OVC009 
     FM191700 15010G28KT 5SM -SHRA BR OVC009 
     FM191900 16010G20KT 3SM SHRA BR OVC007 WS020/18040KT 
     FM200100 16011G22KT 5SM -SHRA BR OVC020
       
KW22 191035Z AUTO 09006KT 10SM SCT037 01/M01 A2998 RMK AO2
KCRW 190954Z 00000KT 10SM FEW035 OVC170 02/01 A2997 RMK AO2 SLP153 T00220011
KCRW 190915Z 1909/2006 05006KT P6SM BKN035 OVC150 
     FM191700 12009G16KT 4SM RA BR OVC035 
     FM192000 15010G20KT 2SM RA BR OVC015 
     FM200000 14009KT 1 1/2SM RA BR OVC012 
     FM200300 17008KT 2SM RA BR OVC008
       
KCKB 190953Z AUTO 05004KT 9SM OVC034 02/M01 A3003 RMK AO2 SLP172 T00171011
KCKB 190915Z 1909/2006 07007KT P6SM BKN040 OVC120 
     FM191700 11008KT 6SM RA BR OVC025 
     FM191800 11008KT 2SM RA BR OVC025 
     FM192200 10007KT 1 1/2SM RA BR OVC009 
     FM200500 31005KT 2SM RA BR OVC006
       
KEKN 191051Z AUTO 00000KT 1/4SM FZFG VV002 M02/M03 A3000 RMK AO2 SLP183 I1000 T10221033 TSNO
KEKN 190911Z 1909/2006 00000KT 1/2SM FG BKN002 
     TEMPO 1909/1913 4SM BR BKN004 BKN012 
     FM191300 VRB03KT P6SM BKN040 OVC120 
     FM191600 16009G15KT P6SM OVC035 
     FM191700 15010G17KT P6SM -RA OVC025 
     FM192000 15010G17KT 2SM RA BR OVC015 
     FM200000 16009G14KT 1 1/2SM RA BR OVC013
       
KHTS 191051Z 05007KT 10SM OVC048 03/01 A2995 RMK AO2 SLP146 T00280006
KHTS 190915Z 1909/2006 05007KT P6SM BKN035 OVC120 
     TEMPO 1914/1915 5SM -RA BR OVC025 
     FM191500 06007KT 2SM RA BR OVC025 
     FM191900 11006KT 1 1/2SM RA BR OVC011 
     FM192200 09005KT 1 1/2SM RA BR OVC006 
     FM200500 33009G15KT 3SM RA BR OVC007
       
KLWB 191035Z AUTO 09003KT 10SM OVC024 02/M01 A3001 RMK AO2 T00231006
KLWB 190520Z 1906/2006 00000KT P6SM OVC015 
     FM191100 VRB03KT 6SM BR OVC009 
     FM191500 09005KT 6SM -RA BR OVC011 
     FM191900 09005KT 4SM SHRA BR OVC006 WS020/16030KT 
     FM200200 11004KT 5SM -SHRA BR OVC009
       
K6L4 191035Z AUTO 00000KT 10SM FEW120 04/02 A2992 RMK AO2
KMRB 190953Z AUTO 26003KT 7SM OVC033 01/M01 A3014 RMK AO2 SLP212 T00061011
KMRB 190539Z 1906/2006 01004KT P6SM OVC040 
     FM191300 08004KT P6SM OVC035 
     FM191700 10006KT P6SM OVC008 
     FM191800 11006KT 2SM -SN OVC008 
     FM191900 11007KT 1 1/2SM -SN OVC003 
     FM192100 11008KT 1 1/2SM -FZRAPLSN OVC003
       
KMGW 190953Z AUTO 01003KT 10SM OVC033 M01/M02 A3004 RMK AO2 SLP184 T10061022
KMGW 190520Z 1906/2006 12004KT P6SM BKN025 
     FM191500 11008KT 6SM -RASN OVC015 
     FM191700 11010KT 3SM -RASN OVC008 
     FM192100 10010KT 2SM -RA OVC008 
     FM200300 03014KT 1 1/2SM -RA BR OVC007
       
KPKB 190953Z AUTO 06006KT 10SM OVC039 01/M02 A3004 RMK AO2 SLP178 T00111017
KPKB 190915Z 1909/2006 07007KT 6SM BR BKN035 OVC120 
     FM191200 07007KT P6SM OVC025 
     TEMPO 1914/1915 4SM -RA BR OVC015 
     FM191500 09007KT 2SM RA BR OVC015 
     FM192100 06008G14KT 2SM RA BR OVC008 
     FM200200 01008KT 1 1/2SM RA BR OVC007 
     FM200400 35009G15KT 2SM RA BR OVC006
       
KW99 191035Z AUTO 00000KT 7SM OVC025 01/00 A3008 RMK AO2 T00100000
KI16 191030Z AUTO 5SM BR CLR 02/01 A2998 RMK AO2 T00160014
KHLG 191011Z AUTO 04007KT 6SM HZ FEW029 M01/M04 A3005 RMK AO2 T10111039
KHLG 190520Z 1906/2006 07005KT P6SM OVC028 
     FM191400 08008KT 5SM -SN OVC015 
     FM191700 07010KT 1SM -SN OVC008 
     FM192000 05010KT 1SM -RASN OVC008 
     FM200500 34013G25KT 1SM -SN OVC008